createdAt,value
2023-04-11T00:01:28.249Z,100626.47
2023-04-11T00:03:55.365Z,100635.91
2023-04-11T00:06:22.238Z,100657.44
2023-04-11T00:08:49.038Z,100707.19
2023-04-11T00:11:16.426Z,100732.19
2023-04-11T00:13:43.841Z,100753.16
2023-04-11T00:16:10.911Z,100760.09
2023-04-11T00:18:39.725Z,100766.41
2023-04-11T00:21:08.644Z,100785.00
2023-04-11T00:23:35.676Z,100785.94
2023-04-11T00:26:03.638Z,100792.88
2023-04-11T00:28:30.551Z,100792.06
2023-04-11T00:30:57.344Z,100783.34
2023-04-11T00:33:24.089Z,100759.28
2023-04-11T00:35:50.990Z,100708.88
2023-04-11T00:38:17.966Z,100627.97
2023-04-11T00:40:44.838Z,100638.38
2023-04-11T00:43:11.674Z,100640.25
2023-04-11T00:45:39.028Z,100644.19
2023-04-11T00:48:06.572Z,100656.16
2023-04-11T00:50:33.576Z,100670.09
2023-04-11T00:53:00.453Z,100688.03
2023-04-11T00:55:27.752Z,100698.94
2023-04-11T00:57:55.491Z,100694.38
2023-04-11T01:00:23.409Z,100693.88
2023-04-11T01:02:50.461Z,100700.81
2023-04-11T01:05:17.763Z,100691.00
2023-04-11T01:07:47.150Z,100703.06
2023-04-11T01:10:15.314Z,100708.66
2023-04-11T01:12:42.756Z,100692.53
2023-04-11T01:15:10.058Z,100701.59
2023-04-11T01:17:36.973Z,100699.81
2023-04-11T01:20:07.567Z,100700.69
2023-04-11T01:22:34.568Z,100693.91
2023-04-11T01:25:02.455Z,100697.41
2023-04-11T01:27:29.167Z,100691.16
2023-04-11T01:29:55.993Z,100695.63
2023-04-11T01:32:22.762Z,100694.09
2023-04-11T01:34:51.620Z,100694.69
2023-04-11T01:37:18.389Z,100687.59
2023-04-11T01:39:45.135Z,100689.75
2023-04-11T01:42:13.170Z,100689.59
2023-04-11T01:44:40.186Z,100684.53
2023-04-11T01:47:07.139Z,100696.06
2023-04-11T01:49:33.967Z,100699.47
2023-04-11T01:52:00.707Z,100691.81
2023-04-11T01:54:27.481Z,100698.47
2023-04-11T01:56:55.135Z,100701.41
2023-04-11T01:59:21.941Z,100690.69
2023-04-11T02:01:48.760Z,100686.25
2023-04-11T02:04:15.720Z,100683.84
2023-04-11T02:06:42.529Z,100699.31
2023-04-11T02:09:09.366Z,100696.00
2023-04-11T02:11:36.274Z,100687.50
2023-04-11T02:14:04.104Z,100689.28
2023-04-11T02:16:30.916Z,100692.47
2023-04-11T02:18:58.276Z,100697.34
2023-04-11T02:21:25.217Z,100697.34
2023-04-11T02:23:51.994Z,100689.63
2023-04-11T02:26:18.743Z,100699.50
2023-04-11T02:28:45.531Z,100706.41
2023-04-11T02:31:12.341Z,100704.31
2023-04-11T02:33:39.129Z,100701.31
2023-04-11T02:36:06.415Z,100702.41
2023-04-11T02:38:33.319Z,100705.00
2023-04-11T02:41:00.739Z,100699.81
2023-04-11T02:43:27.549Z,100698.63
2023-04-11T02:46:01.955Z,100693.00
2023-04-11T02:48:32.869Z,100701.78
2023-04-11T02:50:59.644Z,100706.44
2023-04-11T02:53:26.410Z,100706.34
2023-04-11T02:55:53.146Z,100707.06
2023-04-11T02:58:26.023Z,100712.78
2023-04-11T03:00:52.810Z,100714.09
2023-04-11T03:03:19.717Z,100711.06
2023-04-11T03:05:47.213Z,100717.75
2023-04-11T03:08:14.028Z,100717.19
2023-04-11T03:10:40.764Z,100722.16
2023-04-11T03:13:07.574Z,100734.19
2023-04-11T03:15:34.355Z,100723.03
2023-04-11T03:18:01.180Z,100717.19
2023-04-11T03:20:27.983Z,100719.84
2023-04-11T03:22:54.748Z,100717.03
2023-04-11T03:25:21.671Z,100716.19
2023-04-11T03:27:48.644Z,100714.38
2023-04-11T03:30:15.780Z,100720.44
2023-04-11T03:32:42.780Z,100723.69
2023-04-11T03:35:09.906Z,100723.97
2023-04-11T03:37:37.007Z,100719.19
2023-04-11T03:40:07.244Z,100717.63
2023-04-11T03:42:36.072Z,100716.84
2023-04-11T03:45:03.331Z,100712.13
2023-04-11T03:47:30.368Z,100723.28
2023-04-11T03:49:57.245Z,100737.09
2023-04-11T03:52:24.031Z,100720.41
2023-04-11T03:54:50.869Z,100726.22
2023-04-11T03:57:17.603Z,100725.94
2023-04-11T03:59:48.199Z,100716.66
2023-04-11T04:02:18.097Z,100710.53
2023-04-11T04:04:47.294Z,100724.66
2023-04-11T04:07:14.953Z,100724.84
2023-04-11T04:09:41.762Z,100720.59
2023-04-11T04:12:08.648Z,100727.91
2023-04-11T04:14:35.436Z,100732.66
2023-04-11T04:17:02.855Z,100725.16
2023-04-11T04:19:29.554Z,100737.19
2023-04-11T04:21:58.383Z,100736.41
2023-04-11T04:24:29.771Z,100738.47
2023-04-11T04:27:01.054Z,100731.50
2023-04-11T04:29:34.433Z,100721.94
2023-04-11T04:32:03.398Z,100730.66
2023-04-11T04:34:30.194Z,100734.84
2023-04-11T04:36:59.811Z,100738.66
2023-04-11T04:39:30.245Z,100739.75
2023-04-11T04:41:59.793Z,100738.09
2023-04-11T04:44:26.869Z,100737.38
2023-04-11T04:46:57.290Z,100737.81
2023-04-11T04:49:24.044Z,100740.19
2023-04-11T04:51:51.470Z,100747.81
2023-04-11T04:54:19.613Z,100745.22
2023-04-11T04:56:48.448Z,100749.75
2023-04-11T04:59:16.526Z,100759.19
2023-04-11T05:01:43.503Z,100758.19
2023-04-11T05:04:10.504Z,100756.25
2023-04-11T05:06:37.460Z,100763.97
2023-04-11T05:09:06.331Z,100757.06
2023-04-11T05:11:33.957Z,100753.22
2023-04-11T05:14:00.894Z,100749.56
2023-04-11T05:16:27.668Z,100757.75
2023-04-11T05:18:54.443Z,100756.41
2023-04-11T05:21:22.540Z,100762.88
2023-04-11T05:23:49.393Z,100756.69
2023-04-11T05:26:16.204Z,100762.81
2023-04-11T05:28:43.068Z,100757.16
2023-04-11T05:31:10.190Z,100761.41
2023-04-11T05:33:39.629Z,100766.75
2023-04-11T05:36:06.979Z,100764.50
2023-04-11T05:38:33.964Z,100762.63
2023-04-11T05:41:00.828Z,100766.31
2023-04-11T05:43:27.675Z,100776.91
2023-04-11T05:45:54.980Z,100771.69
2023-04-11T05:48:23.152Z,100774.28
2023-04-11T05:50:50.657Z,100768.34
2023-04-11T05:53:17.585Z,100775.06
2023-04-11T05:55:44.364Z,100788.34
2023-04-11T05:58:11.424Z,100782.72
2023-04-11T06:00:38.675Z,100792.50
2023-04-11T06:03:06.200Z,100789.84
2023-04-11T06:05:33.244Z,100804.50
2023-04-11T06:08:00.695Z,100799.16
2023-04-11T06:10:28.660Z,100800.22
2023-04-11T06:12:55.686Z,100799.94
2023-04-11T06:15:23.754Z,100805.84
2023-04-11T06:17:50.811Z,100805.66
2023-04-11T06:20:18.084Z,100806.88
2023-04-11T06:22:47.025Z,100809.91
2023-04-11T06:25:14.588Z,100811.00
2023-04-11T06:27:41.608Z,100813.75
2023-04-11T06:30:09.427Z,100818.78
2023-04-11T06:32:36.529Z,100816.34
2023-04-11T06:35:03.556Z,100824.34
2023-04-11T06:37:30.290Z,100824.25
2023-04-11T06:39:57.036Z,100817.56
2023-04-11T06:42:23.860Z,100839.91
2023-04-11T06:44:50.578Z,100825.47
2023-04-11T06:47:17.386Z,100830.59
2023-04-11T06:49:44.106Z,100841.72
2023-04-11T06:52:11.217Z,100844.00
2023-04-11T06:54:38.014Z,100846.47
2023-04-11T06:57:04.788Z,100838.75
2023-04-11T06:59:32.323Z,100842.13
2023-04-11T07:01:59.747Z,100850.97
2023-04-11T07:04:26.960Z,100852.47
2023-04-11T07:06:53.829Z,100851.97
2023-04-11T07:09:20.541Z,100858.91
2023-04-11T07:11:47.343Z,100871.75
2023-04-11T07:14:14.244Z,100876.00
2023-04-11T07:16:41.098Z,100863.38
2023-04-11T07:19:08.156Z,100879.19
2023-04-11T07:21:34.965Z,100883.44
2023-04-11T07:24:01.779Z,100885.41
2023-04-11T07:26:32.814Z,100888.59
2023-04-11T07:28:59.885Z,100863.97
2023-04-11T07:31:29.665Z,100897.84
2023-04-11T07:33:56.778Z,100894.09
2023-04-11T07:36:23.697Z,100896.19
2023-04-11T07:38:50.694Z,100900.44
2023-04-11T07:41:17.546Z,100902.44
2023-04-11T07:43:44.288Z,100902.75
2023-04-11T07:46:12.609Z,100911.34
2023-04-11T07:48:39.451Z,100919.31
2023-04-11T07:51:06.527Z,100928.81
2023-04-11T07:53:33.490Z,100939.13
2023-04-11T07:56:00.695Z,100945.84
2023-04-11T07:58:28.698Z,100969.91
2023-04-11T08:00:55.634Z,100959.66
2023-04-11T08:03:23.777Z,100950.38
2023-04-11T08:05:50.841Z,100949.09
2023-04-11T08:08:17.574Z,100960.03
2023-04-11T08:10:44.360Z,100957.97
2023-04-11T08:13:11.494Z,100971.25
2023-04-11T08:15:39.091Z,100967.50
2023-04-11T08:18:06.108Z,100967.94
2023-04-11T08:20:32.930Z,100976.41
2023-04-11T08:23:00.723Z,100980.81
2023-04-11T08:25:27.471Z,100987.03
2023-04-11T08:27:54.203Z,100978.84
2023-04-11T08:30:21.449Z,100985.19
2023-04-11T08:32:48.333Z,100979.44
2023-04-11T08:35:15.185Z,100990.41
2023-04-11T08:37:41.979Z,100987.41
2023-04-11T08:40:09.382Z,100977.69
2023-04-11T08:42:36.508Z,100983.28
2023-04-11T08:45:06.188Z,100972.19
2023-04-11T08:47:33.014Z,100972.03
2023-04-11T08:49:59.763Z,100976.25
2023-04-11T08:52:26.635Z,100977.38
2023-04-11T08:54:57.154Z,100986.59
2023-04-11T08:57:27.816Z,100993.94
2023-04-11T09:00:01.034Z,100984.13
2023-04-11T09:02:28.142Z,100997.97
2023-04-11T09:04:57.922Z,100992.84
2023-04-11T09:07:24.887Z,101004.75
2023-04-11T09:09:51.722Z,101007.81
2023-04-11T09:12:29.353Z,101014.47
2023-04-11T09:14:56.567Z,101000.09
2023-04-11T09:17:23.458Z,101008.75
2023-04-11T09:19:50.228Z,101021.19
2023-04-11T09:22:16.924Z,101019.00
2023-04-11T09:24:43.641Z,101021.28
2023-04-11T09:27:19.803Z,101021.63
2023-04-11T09:29:48.340Z,101020.91
2023-04-11T09:32:35.162Z,101027.47
2023-04-11T09:35:20.897Z,101034.34
2023-04-11T09:37:49.445Z,101033.09
2023-04-11T09:40:18.602Z,101035.91
2023-04-11T09:42:47.253Z,101048.22
2023-04-11T09:45:22.397Z,101057.16
2023-04-11T09:47:52.984Z,101050.06
2023-04-11T09:50:20.708Z,101045.13
2023-04-11T09:52:47.636Z,101056.72
2023-04-11T09:55:16.604Z,101059.94
2023-04-11T09:57:48.467Z,101050.50
2023-04-11T10:00:18.629Z,101060.19
2023-04-11T10:02:53.166Z,101076.31
2023-04-11T10:05:22.302Z,101073.00
2023-04-11T10:08:04.147Z,101081.63
2023-04-11T10:10:31.365Z,101082.31
2023-04-11T10:12:58.145Z,101091.03
2023-04-11T10:15:24.885Z,101090.94
2023-04-11T10:18:11.861Z,101087.88
2023-04-11T10:20:43.968Z,101092.25
2023-04-11T10:23:11.711Z,101087.47
2023-04-11T10:25:53.443Z,101094.13
2023-04-11T10:28:46.247Z,101093.03
2023-04-11T10:31:17.657Z,101090.69
2023-04-11T10:34:17.016Z,101099.59
2023-04-11T10:37:04.429Z,101101.22
2023-04-11T10:40:00.990Z,101102.81
2023-04-11T10:42:31.824Z,101105.22
2023-04-11T10:45:18.078Z,101112.19
2023-04-11T10:48:01.232Z,101114.13
2023-04-11T10:50:28.323Z,101113.19
2023-04-11T10:53:00.364Z,101112.16
2023-04-11T10:55:29.033Z,101111.19
2023-04-11T10:58:08.643Z,101106.50
2023-04-11T11:00:50.963Z,101105.03
2023-04-11T11:03:21.739Z,101103.44
2023-04-11T11:05:58.681Z,101098.63
2023-04-11T11:08:30.769Z,101102.56
2023-04-11T11:11:06.499Z,101116.28
2023-04-11T11:13:44.258Z,101113.94
2023-04-11T11:16:16.462Z,101123.06
2023-04-11T11:18:54.482Z,101129.25
2023-04-11T11:21:27.696Z,101152.81
2023-04-11T11:24:00.257Z,101170.16
2023-04-11T11:26:37.113Z,101177.66
2023-04-11T11:29:05.426Z,101192.88
2023-04-11T11:31:39.678Z,101199.56
2023-04-11T11:34:22.166Z,101190.28
2023-04-11T11:36:50.817Z,101192.03
2023-04-11T11:39:18.218Z,101187.19
2023-04-11T11:41:46.141Z,101191.16
2023-04-11T11:44:30.213Z,101194.63
2023-04-11T11:47:05.960Z,101186.50
2023-04-11T11:49:49.892Z,101201.72
2023-04-11T11:52:33.402Z,101199.56
2023-04-11T11:55:08.057Z,101206.94
2023-04-11T11:57:46.908Z,101214.75
2023-04-11T12:00:15.272Z,101212.69
2023-04-11T12:02:45.259Z,101226.66
2023-04-11T12:05:12.601Z,101232.38
2023-04-11T12:07:40.107Z,101239.03
2023-04-11T12:10:09.434Z,101259.41
2023-04-11T12:12:37.723Z,101250.97
2023-04-11T12:15:24.909Z,101258.69
2023-04-11T12:17:52.811Z,101267.91
2023-04-11T12:20:26.938Z,101249.50
2023-04-11T12:22:55.069Z,101236.72
2023-04-11T12:25:22.724Z,101250.22
2023-04-11T12:27:49.485Z,101267.44
2023-04-11T12:30:16.313Z,101261.72
2023-04-11T12:32:44.139Z,101267.84
2023-04-11T12:35:12.015Z,101271.50
2023-04-11T12:37:39.365Z,101275.97
2023-04-11T12:40:13.109Z,101289.91
2023-04-11T12:45:12.128Z,101275.41
2023-04-11T12:47:39.314Z,101267.72
2023-04-11T12:50:07.427Z,101279.22
2023-04-11T12:52:34.620Z,101274.28
2023-04-11T12:55:01.479Z,101269.31
2023-04-11T12:57:28.380Z,101268.31
2023-04-11T12:59:55.133Z,101263.84
2023-04-11T13:02:22.094Z,101264.13
2023-04-11T13:04:53.275Z,101265.16
2023-04-11T13:07:21.588Z,101252.16
2023-04-11T13:09:49.698Z,101256.25
2023-04-11T13:12:16.758Z,101266.50
2023-04-11T13:14:43.591Z,101265.34
2023-04-11T13:17:10.405Z,101260.09
2023-04-11T13:19:37.141Z,101263.88
2023-04-11T13:22:04.238Z,101255.84
2023-04-11T13:24:32.243Z,101253.44
2023-04-11T13:26:59.316Z,101260.75
2023-04-11T13:29:26.483Z,101268.03
2023-04-11T13:31:53.543Z,101266.22
2023-04-11T13:34:20.677Z,101257.25
2023-04-11T13:36:47.475Z,101256.59
2023-04-11T13:39:14.425Z,101263.25
2023-04-11T13:41:41.239Z,101238.88
2023-04-11T13:44:08.105Z,101258.25
2023-04-11T13:46:34.811Z,101243.41
2023-04-11T13:49:01.801Z,101257.94
2023-04-11T13:51:28.588Z,101267.91
2023-04-11T13:53:55.717Z,101271.09
2023-04-11T13:56:22.873Z,101277.69
2023-04-11T13:58:49.866Z,101263.41
2023-04-11T14:01:17.333Z,101272.59
2023-04-11T14:03:45.055Z,101285.63
2023-04-11T14:06:11.948Z,101275.22
2023-04-11T14:08:38.847Z,101257.28
2023-04-11T14:11:05.856Z,101274.94
2023-04-11T14:13:32.598Z,101270.13
2023-04-11T14:16:07.982Z,101270.63
2023-04-11T14:18:35.526Z,101269.47
2023-04-11T14:21:02.571Z,101276.31
2023-04-11T14:23:29.838Z,101276.75
2023-04-11T14:25:57.002Z,101277.91
2023-04-11T14:28:26.636Z,101277.06
2023-04-11T14:30:53.828Z,101274.41
2023-04-11T14:33:20.763Z,101278.09
2023-04-11T14:35:47.636Z,101279.16
2023-04-11T14:38:16.096Z,101297.28
2023-04-11T14:40:44.773Z,101284.34
2023-04-11T14:43:11.594Z,101294.47
2023-04-11T14:45:38.387Z,101289.88
2023-04-11T14:48:05.650Z,101290.97
2023-04-11T14:50:32.619Z,101302.63
2023-04-11T14:52:59.434Z,101310.16
2023-04-11T14:55:26.255Z,101304.81
2023-04-11T14:57:55.027Z,101306.09
2023-04-11T15:00:22.897Z,101309.69
2023-04-11T15:02:55.285Z,101304.13
2023-04-11T15:05:23.539Z,101303.28
2023-04-11T15:07:51.841Z,101305.28
2023-04-11T15:10:23.337Z,101303.91
2023-04-11T15:12:50.590Z,101307.78
2023-04-11T15:15:17.647Z,101315.50
2023-04-11T15:17:49.678Z,101310.81
2023-04-11T15:20:17.086Z,101305.31
2023-04-11T15:22:46.682Z,101316.03
2023-04-11T15:25:16.842Z,101306.81
2023-04-11T15:27:44.134Z,101314.03
2023-04-11T15:30:11.605Z,101307.53
2023-04-11T15:32:44.446Z,101322.75
2023-04-11T15:35:11.390Z,101317.34
2023-04-11T15:37:38.197Z,101310.94
2023-04-11T15:40:09.597Z,101306.53
2023-04-11T15:42:37.816Z,101316.63
2023-04-11T15:45:05.312Z,101320.66
2023-04-11T15:47:32.258Z,101311.22
2023-04-11T15:50:02.109Z,101315.56
2023-04-11T15:52:28.958Z,101319.31
2023-04-11T15:54:56.457Z,101319.03
2023-04-11T15:57:23.212Z,101322.59
2023-04-11T15:59:49.998Z,101324.72
2023-04-11T16:02:16.875Z,101325.81
2023-04-11T16:04:46.204Z,101326.13
2023-04-11T16:07:18.574Z,101307.47
2023-04-11T16:09:45.724Z,101308.50
2023-04-11T16:12:12.697Z,101310.66
2023-04-11T16:14:39.441Z,101311.09
2023-04-11T16:17:06.555Z,101309.22
2023-04-11T16:19:33.483Z,101302.03
2023-04-11T16:22:00.317Z,101306.53
2023-04-11T16:24:29.446Z,101299.69
2023-04-11T16:26:57.548Z,101299.03
2023-04-11T16:29:25.403Z,101304.47
2023-04-11T16:31:52.324Z,101304.97
2023-04-11T16:34:19.350Z,101300.41
2023-04-11T16:36:46.181Z,101301.22
2023-04-11T16:39:13.096Z,101299.94
2023-04-11T16:41:39.845Z,101303.81
2023-04-11T16:44:11.587Z,101298.56
2023-04-11T16:46:41.991Z,101299.97
2023-04-11T16:49:09.864Z,101304.03
2023-04-11T16:51:36.846Z,101303.09
2023-04-11T16:54:09.607Z,101299.22
2023-04-11T16:56:37.475Z,101290.88
2023-04-11T16:59:05.117Z,101291.28
2023-04-11T17:01:32.291Z,101281.03
2023-04-11T17:03:59.499Z,101278.97
2023-04-11T17:06:27.372Z,101279.84
2023-04-11T17:08:54.199Z,101284.41
2023-04-11T17:11:21.007Z,101273.31
2023-04-11T17:13:49.634Z,101268.91
2023-04-11T17:16:19.932Z,101280.56
2023-04-11T17:18:46.759Z,101278.06
2023-04-11T17:21:13.480Z,101266.53
2023-04-11T17:23:43.339Z,101277.44
2023-04-11T17:26:11.472Z,101284.13
2023-04-11T17:28:41.240Z,101264.16
2023-04-11T17:31:15.628Z,101264.03
2023-04-11T17:33:42.937Z,101265.69
2023-04-11T17:36:11.673Z,101265.22
2023-04-11T17:38:39.124Z,101267.66
2023-04-11T17:41:14.245Z,101273.69
2023-04-11T17:43:42.280Z,101272.63
2023-04-11T17:46:09.297Z,101263.16
2023-04-11T17:48:36.655Z,101265.63
2023-04-11T17:51:04.797Z,101267.59
2023-04-11T17:53:31.889Z,101277.09
2023-04-11T17:55:58.735Z,101270.81
2023-04-11T17:58:25.643Z,101282.13
2023-04-11T18:00:56.644Z,101274.75
2023-04-11T18:03:25.791Z,101279.38
2023-04-11T18:05:54.751Z,101281.66
2023-04-11T18:08:32.249Z,101282.84
2023-04-11T18:11:09.232Z,101281.13
2023-04-11T18:13:35.965Z,101282.53
2023-04-11T18:16:02.801Z,101285.13
2023-04-11T18:18:29.588Z,101278.00
2023-04-11T18:21:04.088Z,101285.94
2023-04-11T18:23:33.584Z,101286.41
2023-04-11T18:26:00.540Z,101288.06
2023-04-11T18:28:27.281Z,101284.72
2023-04-11T18:30:54.102Z,101284.53
2023-04-11T18:33:21.083Z,101287.28
2023-04-11T18:35:48.419Z,101288.19
2023-04-11T18:38:15.401Z,101283.19
2023-04-11T18:40:42.238Z,101281.66
2023-04-11T18:43:09.097Z,101283.09
2023-04-11T18:45:35.897Z,101287.19
2023-04-11T18:48:02.894Z,101286.69
2023-04-11T18:50:30.956Z,101281.16
2023-04-11T18:53:03.564Z,101279.53
2023-04-11T18:55:32.160Z,101277.47
2023-04-11T18:58:00.430Z,101279.06
2023-04-11T19:00:29.725Z,101282.56
2023-04-11T19:02:56.677Z,101269.56
2023-04-11T19:05:25.574Z,101267.44
2023-04-11T19:07:52.981Z,101260.28
2023-04-11T19:10:20.341Z,101258.97
2023-04-11T19:12:47.184Z,101253.66
2023-04-11T19:15:14.002Z,101256.66
2023-04-11T19:17:41.019Z,101260.66
2023-04-11T19:20:12.969Z,101258.50
2023-04-11T19:22:41.340Z,101247.31
2023-04-11T19:25:12.452Z,101242.81
2023-04-11T19:27:41.884Z,101249.22
2023-04-11T19:30:10.465Z,101239.69
2023-04-11T19:32:41.051Z,101233.84
2023-04-11T19:35:10.653Z,101245.81
2023-04-11T19:37:37.880Z,101243.16
2023-04-11T19:40:11.105Z,101241.59
2023-04-11T19:42:39.987Z,101238.41
2023-04-11T19:45:09.408Z,101230.16
2023-04-11T19:47:36.187Z,101229.09
2023-04-11T19:50:03.239Z,101228.06
2023-04-11T19:52:29.992Z,101230.19
2023-04-11T19:54:57.157Z,101228.88
2023-04-11T19:57:26.664Z,101227.53
2023-04-11T19:59:53.671Z,101218.75
2023-04-11T20:02:21.415Z,101218.72
2023-04-11T20:04:48.459Z,101219.25
2023-04-11T20:07:15.986Z,101218.69
2023-04-11T20:09:42.717Z,101211.25
2023-04-11T20:12:09.502Z,101210.47
2023-04-11T20:14:38.368Z,101203.22
2023-04-11T20:17:06.412Z,101194.72
2023-04-11T20:21:25.366Z,101182.72
